sensor_id;sensor_type;location;lat;lon;timestamp;pressure;altitude;pressure_sealevel;temperature;humidity
45369;BME280;51342;55.250;37.668;2023-04-16T00:02:23;101119.66;;;-1.07;52.27
45369;BME280;51342;55.250;37.668;2023-04-16T00:04:55;101132.34;;;-1.07;51.94
45369;BME280;51342;55.250;37.668;2023-04-16T00:07:26;101125.78;;;-1.12;52.61
45369;BME280;51342;55.250;37.668;2023-04-16T00:09:57;101134.81;;;-1.14;52.93
45369;BME280;51342;55.250;37.668;2023-04-16T00:12:29;101126.84;;;-1.17;52.91
45369;BME280;51342;55.250;37.668;2023-04-16T00:15:01;101134.44;;;-1.17;53.10
45369;BME280;51342;55.250;37.668;2023-04-16T00:17:32;101126.44;;;-1.20;53.10
45369;BME280;51342;55.250;37.668;2023-04-16T00:20:04;101135.50;;;-1.22;53.46
45369;BME280;51342;55.250;37.668;2023-04-16T00:22:36;101128.19;;;-1.26;53.39
45369;BME280;51342;55.250;37.668;2023-04-16T00:25:08;101128.56;;;-1.30;53.63
45369;BME280;51342;55.250;37.668;2023-04-16T00:27:40;101127.97;;;-1.35;54.10
45369;BME280;51342;55.250;37.668;2023-04-16T00:30:12;101131.75;;;-1.38;54.04
45369;BME280;51342;55.250;37.668;2023-04-16T00:32:44;101143.53;;;-1.39;54.22
45369;BME280;51342;55.250;37.668;2023-04-16T00:35:15;101125.38;;;-1.42;54.45
45369;BME280;51342;55.250;37.668;2023-04-16T00:37:47;101143.16;;;-1.42;54.42
45369;BME280;51342;55.250;37.668;2023-04-16T00:40:19;101139.69;;;-1.42;54.37
45369;BME280;51342;55.250;37.668;2023-04-16T00:42:50;101132.41;;;-1.46;54.45
45369;BME280;51342;55.250;37.668;2023-04-16T00:45:21;101133.50;;;-1.44;54.16
45369;BME280;51342;55.250;37.668;2023-04-16T00:47:53;101137.34;;;-1.41;53.97
45369;BME280;51342;55.250;37.668;2023-04-16T00:50:25;101130.84;;;-1.39;53.95
45369;BME280;51342;55.250;37.668;2023-04-16T00:52:57;101140.09;;;-1.39;54.20
45369;BME280;51342;55.250;37.668;2023-04-16T00:55:30;101143.34;;;-1.40;54.24
45369;BME280;51342;55.250;37.668;2023-04-16T00:58:02;101134.22;;;-1.45;53.85
45369;BME280;51342;55.250;37.668;2023-04-16T01:00:33;101139.31;;;-1.45;54.28
45369;BME280;51342;55.250;37.668;2023-04-16T01:03:05;101134.72;;;-1.48;54.10
45369;BME280;51342;55.250;37.668;2023-04-16T01:05:37;101131.09;;;-1.50;54.30
45369;BME280;51342;55.250;37.668;2023-04-16T01:08:17;101129.91;;;-1.59;54.23
45369;BME280;51342;55.250;37.668;2023-04-16T01:10:49;101121.94;;;-1.62;54.18
45369;BME280;51342;55.250;37.668;2023-04-16T01:13:20;101128.69;;;-1.55;54.09
45369;BME280;51342;55.250;37.668;2023-04-16T01:15:52;101134.38;;;-1.51;54.12
45369;BME280;51342;55.250;37.668;2023-04-16T01:18:25;101136.72;;;-1.52;53.94
45369;BME280;51342;55.250;37.668;2023-04-16T01:20:57;101144.34;;;-1.52;53.94
45369;BME280;51342;55.250;37.668;2023-04-16T01:23:29;101139.38;;;-1.58;54.55
45369;BME280;51342;55.250;37.668;2023-04-16T01:26:01;101132.28;;;-1.61;54.46
45369;BME280;51342;55.250;37.668;2023-04-16T01:28:33;101132.59;;;-1.65;54.42
45369;BME280;51342;55.250;37.668;2023-04-16T01:31:05;101128.78;;;-1.68;54.84
45369;BME280;51342;55.250;37.668;2023-04-16T01:34:02;101139.41;;;-1.71;54.76
45369;BME280;51342;55.250;37.668;2023-04-16T01:36:33;101141.28;;;-1.70;54.77
45369;BME280;51342;55.250;37.668;2023-04-16T01:39:05;101140.13;;;-1.72;54.54
45369;BME280;51342;55.250;37.668;2023-04-16T01:41:36;101136.50;;;-1.74;54.98
45369;BME280;51342;55.250;37.668;2023-04-16T01:44:08;101134.81;;;-1.80;55.21
45369;BME280;51342;55.250;37.668;2023-04-16T01:46:39;101132.41;;;-1.86;55.24
45369;BME280;51342;55.250;37.668;2023-04-16T01:49:11;101123.78;;;-1.94;55.68
45369;BME280;51342;55.250;37.668;2023-04-16T01:51:42;101124.13;;;-1.98;56.04
45369;BME280;51342;55.250;37.668;2023-04-16T01:54:14;101138.09;;;-1.94;55.82
45369;BME280;51342;55.250;37.668;2023-04-16T01:56:46;101131.94;;;-1.96;56.45
45369;BME280;51342;55.250;37.668;2023-04-16T01:59:17;101128.31;;;-1.98;56.29
45369;BME280;51342;55.250;37.668;2023-04-16T02:01:49;101145.94;;;-1.93;55.38
45369;BME280;51342;55.250;37.668;2023-04-16T02:04:20;101135.97;;;-1.91;55.33
45369;BME280;51342;55.250;37.668;2023-04-16T02:06:52;101138.19;;;-1.87;55.29
45369;BME280;51342;55.250;37.668;2023-04-16T02:09:23;101129.09;;;-1.92;55.28
45369;BME280;51342;55.250;37.668;2023-04-16T02:11:55;101134.22;;;-1.85;55.26
45369;BME280;51342;55.250;37.668;2023-04-16T02:14:26;101139.31;;;-1.85;55.20
45369;BME280;51342;55.250;37.668;2023-04-16T02:16:59;101126.94;;;-1.89;55.12
45369;BME280;51342;55.250;37.668;2023-04-16T02:19:51;101134.34;;;-1.91;55.76
45369;BME280;51342;55.250;37.668;2023-04-16T02:22:23;101133.03;;;-1.94;55.71
45369;BME280;51342;55.250;37.668;2023-04-16T02:24:56;101134.47;;;-1.96;55.18
45369;BME280;51342;55.250;37.668;2023-04-16T02:27:28;101141.78;;;-1.92;55.08
45369;BME280;51342;55.250;37.668;2023-04-16T02:30:06;101139.41;;;-1.91;55.06
45369;BME280;51342;55.250;37.668;2023-04-16T02:32:39;101141.41;;;-1.88;54.38
45369;BME280;51342;55.250;37.668;2023-04-16T02:35:11;101144.38;;;-1.85;54.22
45369;BME280;51342;55.250;37.668;2023-04-16T02:37:43;101138.97;;;-1.81;53.87
45369;BME280;51342;55.250;37.668;2023-04-16T02:40:14;101140.50;;;-1.76;53.22
45369;BME280;51342;55.250;37.668;2023-04-16T02:42:46;101145.22;;;-1.72;53.25
45369;BME280;51342;55.250;37.668;2023-04-16T02:45:18;101146.34;;;-1.70;53.08
45369;BME280;51342;55.250;37.668;2023-04-16T02:47:50;101140.56;;;-1.69;52.85
45369;BME280;51342;55.250;37.668;2023-04-16T02:50:22;101150.34;;;-1.65;52.52
45369;BME280;51342;55.250;37.668;2023-04-16T02:52:53;101152.19;;;-1.64;52.07
45369;BME280;51342;55.250;37.668;2023-04-16T02:55:25;101150.03;;;-1.61;52.56
45369;BME280;51342;55.250;37.668;2023-04-16T02:57:56;101138.06;;;-1.62;51.92
45369;BME280;51342;55.250;37.668;2023-04-16T03:00:28;101145.41;;;-1.50;51.71
45369;BME280;51342;55.250;37.668;2023-04-16T03:02:59;101154.13;;;-1.48;51.77
45369;BME280;51342;55.250;37.668;2023-04-16T03:05:31;101152.31;;;-1.49;51.77
45369;BME280;51342;55.250;37.668;2023-04-16T03:08:03;101149.06;;;-1.48;52.10
45369;BME280;51342;55.250;37.668;2023-04-16T03:10:34;101156.66;;;-1.48;52.15
45369;BME280;51342;55.250;37.668;2023-04-16T03:13:06;101154.53;;;-1.45;52.28
45369;BME280;51342;55.250;37.668;2023-04-16T03:15:38;101160.53;;;-1.45;52.03
45369;BME280;51342;55.250;37.668;2023-04-16T03:18:09;101156.03;;;-1.40;51.78
45369;BME280;51342;55.250;37.668;2023-04-16T03:20:41;101155.34;;;-1.32;51.49
45369;BME280;51342;55.250;37.668;2023-04-16T03:23:12;101158.16;;;-1.23;51.21
45369;BME280;51342;55.250;37.668;2023-04-16T03:25:44;101159.13;;;-1.16;50.82
45369;BME280;51342;55.250;37.668;2023-04-16T03:28:20;101152.13;;;-1.04;50.20
45369;BME280;51342;55.250;37.668;2023-04-16T03:30:52;101157.31;;;-0.90;49.96
45369;BME280;51342;55.250;37.668;2023-04-16T03:33:24;101150.69;;;-0.75;49.60
45369;BME280;51342;55.250;37.668;2023-04-16T03:35:58;101150.09;;;-0.52;49.05
45369;BME280;51342;55.250;37.668;2023-04-16T03:38:32;101146.56;;;-0.26;48.62
45369;BME280;51342;55.250;37.668;2023-04-16T03:41:04;101142.50;;;0.10;48.08
45369;BME280;51342;55.250;37.668;2023-04-16T03:43:37;101140.03;;;0.46;47.64
45369;BME280;51342;55.250;37.668;2023-04-16T03:46:09;101144.03;;;0.79;46.84
45369;BME280;51342;55.250;37.668;2023-04-16T03:48:40;101140.00;;;1.10;46.32
45369;BME280;51342;55.250;37.668;2023-04-16T03:51:12;101138.25;;;1.46;45.27
45369;BME280;51342;55.250;37.668;2023-04-16T03:53:43;101144.16;;;1.82;44.60
45369;BME280;51342;55.250;37.668;2023-04-16T03:56:15;101144.91;;;2.11;44.04
45369;BME280;51342;55.250;37.668;2023-04-16T03:58:46;101140.53;;;2.41;43.23
45369;BME280;51342;55.250;37.668;2023-04-16T04:01:18;101138.06;;;2.72;42.71
45369;BME280;51342;55.250;37.668;2023-04-16T04:03:50;101136.97;;;2.93;42.06
45369;BME280;51342;55.250;37.668;2023-04-16T04:06:21;101127.78;;;3.02;41.80
45369;BME280;51342;55.250;37.668;2023-04-16T04:08:53;101129.13;;;3.14;40.99
45369;BME280;51342;55.250;37.668;2023-04-16T04:11:24;101136.31;;;3.26;40.33
45369;BME280;51342;55.250;37.668;2023-04-16T04:13:57;101135.06;;;3.22;40.43
45369;BME280;51342;55.250;37.668;2023-04-16T04:16:30;101132.59;;;3.31;40.26
45369;BME280;51342;55.250;37.668;2023-04-16T04:19:03;101121.72;;;3.40;39.91
45369;BME280;51342;55.250;37.668;2023-04-16T04:21:35;101121.47;;;3.46;39.35
45369;BME280;51342;55.250;37.668;2023-04-16T04:24:10;101125.75;;;3.54;38.78
45369;BME280;51342;55.250;37.668;2023-04-16T04:26:42;101124.75;;;3.61;38.69
45369;BME280;51342;55.250;37.668;2023-04-16T04:29:14;101129.88;;;3.61;38.28
45369;BME280;51342;55.250;37.668;2023-04-16T04:31:46;101118.97;;;3.55;37.56
45369;BME280;51342;55.250;37.668;2023-04-16T04:34:17;101127.16;;;3.59;37.96
45369;BME280;51342;55.250;37.668;2023-04-16T04:36:49;101129.53;;;3.73;38.09
45369;BME280;51342;55.250;37.668;2023-04-16T04:39:20;101121.25;;;3.92;37.48
45369;BME280;51342;55.250;37.668;2023-04-16T04:41:53;101127.22;;;4.08;37.98
45369;BME280;51342;55.250;37.668;2023-04-16T04:44:25;101124.69;;;4.33;37.28
45369;BME280;51342;55.250;37.668;2023-04-16T04:46:56;101121.53;;;4.60;36.15
45369;BME280;51342;55.250;37.668;2023-04-16T04:49:28;101124.47;;;4.80;36.03
45369;BME280;51342;55.250;37.668;2023-04-16T04:52:00;101123.97;;;5.00;36.14
45369;BME280;51342;55.250;37.668;2023-04-16T04:54:32;101119.03;;;5.27;35.61
45369;BME280;51342;55.250;37.668;2023-04-16T04:57:04;101118.03;;;5.60;35.29
45369;BME280;51342;55.250;37.668;2023-04-16T04:59:36;101117.91;;;5.84;34.25
45369;BME280;51342;55.250;37.668;2023-04-16T05:02:07;101113.22;;;6.06;34.29
45369;BME280;51342;55.250;37.668;2023-04-16T05:04:39;101112.13;;;6.30;33.78
45369;BME280;51342;55.250;37.668;2023-04-16T05:07:11;101109.59;;;6.58;32.73
45369;BME280;51342;55.250;37.668;2023-04-16T05:09:42;101097.19;;;6.62;32.07
45369;BME280;51342;55.250;37.668;2023-04-16T05:12:13;101106.84;;;6.74;31.88
45369;BME280;51342;55.250;37.668;2023-04-16T05:14:45;101105.47;;;6.77;31.44
45369;BME280;51342;55.250;37.668;2023-04-16T05:17:16;101111.84;;;6.72;31.24
45369;BME280;51342;55.250;37.668;2023-04-16T05:19:48;101106.56;;;6.71;31.45
45369;BME280;51342;55.250;37.668;2023-04-16T05:22:19;101113.22;;;6.69;31.33
45369;BME280;51342;55.250;37.668;2023-04-16T05:24:51;101104.44;;;6.67;31.24
45369;BME280;51342;55.250;37.668;2023-04-16T05:27:22;101099.13;;;6.74;31.21
45369;BME280;51342;55.250;37.668;2023-04-16T05:29:53;101105.84;;;6.90;31.19
45369;BME280;51342;55.250;37.668;2023-04-16T05:32:25;101097.66;;;6.95;30.05
45369;BME280;51342;55.250;37.668;2023-04-16T05:34:57;101096.47;;;6.91;30.34
45369;BME280;51342;55.250;37.668;2023-04-16T05:37:28;101096.44;;;7.00;30.67
45369;BME280;51342;55.250;37.668;2023-04-16T05:40:00;101095.78;;;7.11;30.54
45369;BME280;51342;55.250;37.668;2023-04-16T05:42:32;101098.56;;;7.23;30.24
45369;BME280;51342;55.250;37.668;2023-04-16T05:45:03;101101.09;;;7.31;30.28
45369;BME280;51342;55.250;37.668;2023-04-16T05:47:35;101109.03;;;7.43;29.93
45369;BME280;51342;55.250;37.668;2023-04-16T05:50:07;101102.63;;;7.48;29.52
45369;BME280;51342;55.250;37.668;2023-04-16T05:52:39;101104.13;;;7.55;29.44
45369;BME280;51342;55.250;37.668;2023-04-16T05:55:10;101109.06;;;7.62;29.47
45369;BME280;51342;55.250;37.668;2023-04-16T05:57:41;101105.25;;;7.67;29.14
45369;BME280;51342;55.250;37.668;2023-04-16T06:00:13;101106.56;;;7.72;28.87
45369;BME280;51342;55.250;37.668;2023-04-16T06:02:44;101102.16;;;7.71;28.26
45369;BME280;51342;55.250;37.668;2023-04-16T06:05:16;101102.16;;;7.71;28.95
45369;BME280;51342;55.250;37.668;2023-04-16T06:07:47;101098.50;;;7.78;28.58
45369;BME280;51342;55.250;37.668;2023-04-16T06:10:18;101101.88;;;7.87;28.43
45369;BME280;51342;55.250;37.668;2023-04-16T06:12:50;101098.72;;;8.00;28.99
45369;BME280;51342;55.250;37.668;2023-04-16T06:15:21;101105.00;;;8.12;28.53
45369;BME280;51342;55.250;37.668;2023-04-16T06:17:53;101102.72;;;8.25;28.57
45369;BME280;51342;55.250;37.668;2023-04-16T06:20:24;101095.63;;;8.41;28.47
45369;BME280;51342;55.250;37.668;2023-04-16T06:22:56;101087.28;;;8.54;27.74
45369;BME280;51342;55.250;37.668;2023-04-16T06:25:27;101090.66;;;8.63;28.15
45369;BME280;51342;55.250;37.668;2023-04-16T06:27:59;101086.69;;;8.77;28.48
45369;BME280;51342;55.250;37.668;2023-04-16T06:30:30;101096.78;;;8.94;28.25
45369;BME280;51342;55.250;37.668;2023-04-16T06:33:02;101089.34;;;9.08;27.66
45369;BME280;51342;55.250;37.668;2023-04-16T06:35:33;101090.63;;;9.23;26.90
45369;BME280;51342;55.250;37.668;2023-04-16T06:38:05;101085.44;;;9.23;26.85
45369;BME280;51342;55.250;37.668;2023-04-16T06:40:37;101086.88;;;9.29;26.96
45369;BME280;51342;55.250;37.668;2023-04-16T06:43:09;101082.47;;;9.28;26.74
45369;BME280;51342;55.250;37.668;2023-04-16T06:45:40;101085.56;;;9.35;27.67
45369;BME280;51342;55.250;37.668;2023-04-16T06:48:12;101082.38;;;9.37;26.31
45369;BME280;51342;55.250;37.668;2023-04-16T06:50:43;101083.38;;;9.39;25.93
45369;BME280;51342;55.250;37.668;2023-04-16T06:53:14;101086.38;;;9.44;26.61
45369;BME280;51342;55.250;37.668;2023-04-16T06:55:46;101079.13;;;9.50;26.50
45369;BME280;51342;55.250;37.668;2023-04-16T06:58:17;101077.31;;;9.59;26.59
45369;BME280;51342;55.250;37.668;2023-04-16T07:00:49;101080.41;;;9.65;26.39
45369;BME280;51342;55.250;37.668;2023-04-16T07:03:20;101076.00;;;9.64;25.60
45369;BME280;51342;55.250;37.668;2023-04-16T07:05:52;101078.97;;;9.59;25.85
45369;BME280;51342;55.250;37.668;2023-04-16T07:08:23;101078.63;;;9.54;25.93
45369;BME280;51342;55.250;37.668;2023-04-16T07:10:55;101073.84;;;9.48;26.04
45369;BME280;51342;55.250;37.668;2023-04-16T07:13:26;101077.56;;;9.52;25.57
45369;BME280;51342;55.250;37.668;2023-04-16T07:15:57;101084.13;;;9.59;25.89
45369;BME280;51342;55.250;37.668;2023-04-16T07:18:29;101077.66;;;9.64;25.57
45369;BME280;51342;55.250;37.668;2023-04-16T07:21:00;101070.56;;;9.71;25.72
45369;BME280;51342;55.250;37.668;2023-04-16T07:23:32;101077.16;;;9.78;25.44
45369;BME280;51342;55.250;37.668;2023-04-16T07:26:04;101072.47;;;9.94;25.01
45369;BME280;51342;55.250;37.668;2023-04-16T07:28:35;101076.25;;;10.09;25.38
45369;BME280;51342;55.250;37.668;2023-04-16T07:31:07;101064.09;;;10.19;24.12
45369;BME280;51342;55.250;37.668;2023-04-16T07:33:39;101064.09;;;10.19;23.94
45369;BME280;51342;55.250;37.668;2023-04-16T07:36:10;101065.41;;;10.14;23.51
45369;BME280;51342;55.250;37.668;2023-04-16T07:38:42;101059.81;;;10.19;22.90
45369;BME280;51342;55.250;37.668;2023-04-16T07:41:14;101056.97;;;10.26;23.85
45369;BME280;51342;55.250;37.668;2023-04-16T07:43:45;101064.03;;;10.39;23.12
45369;BME280;51342;55.250;37.668;2023-04-16T07:46:17;101067.34;;;10.48;22.69
45369;BME280;51342;55.250;37.668;2023-04-16T07:48:48;101065.50;;;10.57;22.46
45369;BME280;51342;55.250;37.668;2023-04-16T07:51:20;101056.63;;;10.66;22.43
45369;BME280;51342;55.250;37.668;2023-04-16T07:53:51;101059.97;;;10.75;22.04
45369;BME280;51342;55.250;37.668;2023-04-16T07:56:22;101052.91;;;10.84;22.02
45369;BME280;51342;55.250;37.668;2023-04-16T07:58:54;101055.31;;;10.93;21.45
45369;BME280;51342;55.250;37.668;2023-04-16T08:01:26;101047.34;;;11.01;21.07
45369;BME280;51342;55.250;37.668;2023-04-16T08:03:57;101039.03;;;11.17;21.62
45369;BME280;51342;55.250;37.668;2023-04-16T08:06:28;101043.81;;;11.34;21.79
45369;BME280;51342;55.250;37.668;2023-04-16T08:09:00;101033.06;;;11.52;20.57
45369;BME280;51342;55.250;37.668;2023-04-16T08:11:32;101034.88;;;11.64;20.83
45369;BME280;51342;55.250;37.668;2023-04-16T08:14:03;101037.44;;;11.64;20.26
45369;BME280;51342;55.250;37.668;2023-04-16T08:16:34;101038.34;;;11.53;20.53
45369;BME280;51342;55.250;37.668;2023-04-16T08:19:06;101031.56;;;11.44;20.19
45369;BME280;51342;55.250;37.668;2023-04-16T08:21:37;101024.56;;;11.31;20.61
45369;BME280;51342;55.250;37.668;2023-04-16T08:24:09;101025.78;;;11.24;20.78
45369;BME280;51342;55.250;37.668;2023-04-16T08:26:41;101031.97;;;11.14;20.00
45369;BME280;51342;55.250;37.668;2023-04-16T08:29:13;101025.53;;;11.09;20.20
45369;BME280;51342;55.250;37.668;2023-04-16T08:31:44;101020.69;;;11.14;20.62
45369;BME280;51342;55.250;37.668;2023-04-16T08:34:16;101027.94;;;11.18;19.92
45369;BME280;51342;55.250;37.668;2023-04-16T08:36:47;101023.28;;;11.14;20.50
45369;BME280;51342;55.250;37.668;2023-04-16T08:39:20;101016.97;;;11.10;20.81
45369;BME280;51342;55.250;37.668;2023-04-16T08:41:52;101013.25;;;11.07;20.59
45369;BME280;51342;55.250;37.668;2023-04-16T08:44:26;101005.81;;;11.11;20.55
45369;BME280;51342;55.250;37.668;2023-04-16T08:47:00;101002.69;;;11.15;20.46
45369;BME280;51342;55.250;37.668;2023-04-16T08:49:35;100999.28;;;11.17;21.75
45369;BME280;51342;55.250;37.668;2023-04-16T08:52:08;100983.09;;;11.19;21.01
45369;BME280;51342;55.250;37.668;2023-04-16T08:55:12;100999.66;;;11.33;21.02
45369;BME280;51342;55.250;37.668;2023-04-16T08:57:50;100991.44;;;11.38;20.55
45369;BME280;51342;55.250;37.668;2023-04-16T09:00:24;100991.78;;;11.43;19.25
45369;BME280;51342;55.250;37.668;2023-04-16T09:02:56;100984.56;;;11.39;19.81
45369;BME280;51342;55.250;37.668;2023-04-16T09:05:28;100987.06;;;11.49;19.80
45369;BME280;51342;55.250;37.668;2023-04-16T09:08:01;100987.06;;;11.49;19.07
45369;BME280;51342;55.250;37.668;2023-04-16T09:10:33;100996.06;;;11.43;20.07
45369;BME280;51342;55.250;37.668;2023-04-16T09:13:05;100999.56;;;11.43;19.34
45369;BME280;51342;55.250;37.668;2023-04-16T09:15:38;100993.59;;;11.44;19.54
45369;BME280;51342;55.250;37.668;2023-04-16T09:18:11;100996.97;;;11.55;19.86
45369;BME280;51342;55.250;37.668;2023-04-16T09:20:42;100994.28;;;11.65;19.80
45369;BME280;51342;55.250;37.668;2023-04-16T09:23:14;100997.56;;;11.74;19.52
45369;BME280;51342;55.250;37.668;2023-04-16T09:25:45;100994.19;;;11.75;19.11
45369;BME280;51342;55.250;37.668;2023-04-16T09:31:15;100979.97;;;11.70;18.93
45369;BME280;51342;55.250;37.668;2023-04-16T09:34:04;100976.59;;;11.71;19.27
45369;BME280;51342;55.250;37.668;2023-04-16T09:36:36;100982.44;;;11.80;18.94
45369;BME280;51342;55.250;37.668;2023-04-16T09:39:17;100973.28;;;11.74;19.24
45369;BME280;51342;55.250;37.668;2023-04-16T09:41:51;100974.53;;;11.79;19.22
45369;BME280;51342;55.250;37.668;2023-04-16T09:44:34;100978.16;;;11.81;19.74
45369;BME280;51342;55.250;37.668;2023-04-16T09:47:07;100974.56;;;11.90;19.44
45369;BME280;51342;55.250;37.668;2023-04-16T09:49:43;100978.97;;;12.03;20.50
45369;BME280;51342;55.250;37.668;2023-04-16T09:52:18;100964.16;;;12.14;19.63
45369;BME280;51342;55.250;37.668;2023-04-16T09:54:52;100959.13;;;12.29;19.50
45369;BME280;51342;55.250;37.668;2023-04-16T09:57:24;100963.81;;;12.46;18.73
45369;BME280;51342;55.250;37.668;2023-04-16T10:00:06;100963.25;;;12.50;18.98
45369;BME280;51342;55.250;37.668;2023-04-16T10:02:39;100968.75;;;12.55;18.78
45369;BME280;51342;55.250;37.668;2023-04-16T10:05:13;100961.44;;;12.49;18.97
45369;BME280;51342;55.250;37.668;2023-04-16T10:07:48;100955.47;;;12.50;18.82
45369;BME280;51342;55.250;37.668;2023-04-16T10:10:21;100965.94;;;12.52;20.76
45369;BME280;51342;55.250;37.668;2023-04-16T10:12:54;100955.06;;;12.57;19.80
45369;BME280;51342;55.250;37.668;2023-04-16T10:15:26;100966.91;;;12.65;19.49
45369;BME280;51342;55.250;37.668;2023-04-16T10:17:58;100945.91;;;12.62;19.38
45369;BME280;51342;55.250;37.668;2023-04-16T10:20:30;100955.13;;;12.70;19.43
45369;BME280;51342;55.250;37.668;2023-04-16T10:23:02;100943.75;;;12.68;19.27
45369;BME280;51342;55.250;37.668;2023-04-16T10:25:33;100951.44;;;12.67;19.51
45369;BME280;51342;55.250;37.668;2023-04-16T10:28:06;100944.06;;;12.73;19.33
45369;BME280;51342;55.250;37.668;2023-04-16T10:30:37;100951.69;;;12.83;19.51
45369;BME280;51342;55.250;37.668;2023-04-16T10:33:09;100938.31;;;12.90;18.99
45369;BME280;51342;55.250;37.668;2023-04-16T10:35:44;100933.50;;;12.83;17.97
45369;BME280;51342;55.250;37.668;2023-04-16T10:38:23;100943.47;;;12.77;18.05
45369;BME280;51342;55.250;37.668;2023-04-16T10:41:01;100941.66;;;12.76;18.13
45369;BME280;51342;55.250;37.668;2023-04-16T10:43:37;100946.91;;;12.64;18.82
45369;BME280;51342;55.250;37.668;2023-04-16T10:46:25;100938.88;;;12.73;17.80
45369;BME280;51342;55.250;37.668;2023-04-16T10:49:01;100938.38;;;12.79;18.44
45369;BME280;51342;55.250;37.668;2023-04-16T10:51:34;100925.72;;;12.83;18.30
45369;BME280;51342;55.250;37.668;2023-04-16T10:56:45;100935.81;;;12.92;18.26
45369;BME280;51342;55.250;37.668;2023-04-16T10:59:18;100926.22;;;12.91;17.77
45369;BME280;51342;55.250;37.668;2023-04-16T11:01:54;100918.03;;;12.85;18.08
45369;BME280;51342;55.250;37.668;2023-04-16T11:04:35;100914.84;;;12.89;18.16
45369;BME280;51342;55.250;37.668;2023-04-16T11:10:13;100925.81;;;12.85;18.98
45369;BME280;51342;55.250;37.668;2023-04-16T11:12:49;100910.53;;;12.89;18.68
45369;BME280;51342;55.250;37.668;2023-04-16T11:15:21;100923.84;;;12.94;18.68
45369;BME280;51342;55.250;37.668;2023-04-16T11:17:53;100917.44;;;12.89;18.58
45369;BME280;51342;55.250;37.668;2023-04-16T11:20:26;100920.22;;;12.92;18.43
45369;BME280;51342;55.250;37.668;2023-04-16T11:22:58;100912.75;;;12.96;18.10
45369;BME280;51342;55.250;37.668;2023-04-16T11:25:30;100912.06;;;12.99;18.55
45369;BME280;51342;55.250;37.668;2023-04-16T11:28:01;100906.97;;;13.00;17.98
45369;BME280;51342;55.250;37.668;2023-04-16T11:30:34;100899.34;;;13.04;17.54
45369;BME280;51342;55.250;37.668;2023-04-16T11:33:10;100914.53;;;12.97;18.30
45369;BME280;51342;55.250;37.668;2023-04-16T11:35:41;100899.44;;;12.92;17.81
45369;BME280;51342;55.250;37.668;2023-04-16T11:38:13;100899.34;;;12.90;18.24
45369;BME280;51342;55.250;37.668;2023-04-16T11:40:44;100893.56;;;12.94;18.42
45369;BME280;51342;55.250;37.668;2023-04-16T11:43:17;100896.16;;;12.94;18.01
45369;BME280;51342;55.250;37.668;2023-04-16T11:45:57;100870.06;;;12.93;18.26
45369;BME280;51342;55.250;37.668;2023-04-16T11:48:48;100885.88;;;12.96;18.27
45369;BME280;51342;55.250;37.668;2023-04-16T11:51:20;100882.28;;;12.94;17.58
45369;BME280;51342;55.250;37.668;2023-04-16T11:53:53;100876.69;;;12.88;17.70
45369;BME280;51342;55.250;37.668;2023-04-16T11:56:31;100888.88;;;12.89;18.14
45369;BME280;51342;55.250;37.668;2023-04-16T12:01:48;100872.47;;;12.90;18.09
45369;BME280;51342;55.250;37.668;2023-04-16T12:04:24;100861.09;;;12.88;18.53
45369;BME280;51342;55.250;37.668;2023-04-16T12:07:12;100859.41;;;12.88;18.59
45369;BME280;51342;55.250;37.668;2023-04-16T12:09:44;100853.09;;;12.98;18.45
45369;BME280;51342;55.250;37.668;2023-04-16T12:12:29;100857.28;;;12.96;18.51
45369;BME280;51342;55.250;37.668;2023-04-16T12:15:02;100862.41;;;12.94;18.99
45369;BME280;51342;55.250;37.668;2023-04-16T12:17:34;100861.38;;;12.92;18.86
45369;BME280;51342;55.250;37.668;2023-04-16T12:20:11;100856.09;;;12.91;18.77
45369;BME280;51342;55.250;37.668;2023-04-16T12:22:45;100846.91;;;12.83;18.03
45369;BME280;51342;55.250;37.668;2023-04-16T12:25:17;100836.38;;;12.81;18.07
45369;BME280;51342;55.250;37.668;2023-04-16T12:27:53;100839.31;;;12.86;17.80
45369;BME280;51342;55.250;37.668;2023-04-16T12:30:26;100843.81;;;12.88;18.66
45369;BME280;51342;55.250;37.668;2023-04-16T12:33:17;100841.09;;;12.87;18.85
45369;BME280;51342;55.250;37.668;2023-04-16T12:35:49;100838.72;;;12.90;18.34
45369;BME280;51342;55.250;37.668;2023-04-16T12:38:21;100833.44;;;12.88;17.90
45369;BME280;51342;55.250;37.668;2023-04-16T12:40:52;100832.00;;;12.80;18.23
45369;BME280;51342;55.250;37.668;2023-04-16T12:43:26;100827.53;;;12.78;18.82
45369;BME280;51342;55.250;37.668;2023-04-16T12:45:58;100832.50;;;12.74;18.68
45369;BME280;51342;55.250;37.668;2023-04-16T12:48:30;100826.31;;;12.72;18.67
45369;BME280;51342;55.250;37.668;2023-04-16T12:51:02;100822.59;;;12.69;18.03
45369;BME280;51342;55.250;37.668;2023-04-16T12:53:34;100829.00;;;12.61;18.20
45369;BME280;51342;55.250;37.668;2023-04-16T12:56:05;100831.28;;;12.56;18.55
45369;BME280;51342;55.250;37.668;2023-04-16T12:58:37;100824.19;;;12.54;18.65
45369;BME280;51342;55.250;37.668;2023-04-16T13:01:08;100806.03;;;12.54;19.03
45369;BME280;51342;55.250;37.668;2023-04-16T13:03:40;100812.09;;;12.54;18.29
45369;BME280;51342;55.250;37.668;2023-04-16T13:06:13;100806.03;;;12.54;18.21
45369;BME280;51342;55.250;37.668;2023-04-16T13:08:44;100792.03;;;12.52;19.00
45369;BME280;51342;55.250;37.668;2023-04-16T13:11:19;100806.59;;;12.50;19.78
45369;BME280;51342;55.250;37.668;2023-04-16T13:13:54;100802.09;;;12.47;19.44
45369;BME280;51342;55.250;37.668;2023-04-16T13:16:25;100790.63;;;12.43;18.63
45369;BME280;51342;55.250;37.668;2023-04-16T13:18:57;100790.50;;;12.42;19.06
45369;BME280;51342;55.250;37.668;2023-04-16T13:21:28;100795.59;;;12.40;18.33
45369;BME280;51342;55.250;37.668;2023-04-16T13:24:00;100785.78;;;12.36;19.15